Terminal Aerodrome Forecast
Issued by NWS

Home | Current Version | Previous Version | Text Only | Print | Product List | Glossary On
Versions: 1 2 3 4 5 6 7 8 9 10 11 12 13 14 15 16 17 18
000
FTUS43 KDLH 250300 AAA
TAFHYR
TAF AMD
KHYR 250354Z 2504/2524 23006KT P6SM OVC010
     FM250900 21007KT 6SM BR OVC010
      TEMPO 2509/2513 5SM -FZDZSN OVC007
     FM251700 19004KT P6SM -SN OVC012=

USA.gov is the U.S. government's official web portal to all federal, state and local government web resources and services.